Time;durP1;ratioP1;P1;durP2;ratioP2;P2;SDS_P1;SDS_P2;PMS_P1;PMS_P2;Temp;Humidity;BMP_temperature;BMP_pressure;BME280_temperature;BME280_humidity;BME280_pressure;Samples;Min_cycle;Max_cycle;Signal;HPM_P1;HPM_P2
2021/03/14 00:00:02;;;;;;;3.08;1.08;;;6.60;99.90;;;;;;5003800;28;20555;-81
2021/03/14 00:02:29;;;;;;;3.05;0.82;;;6.40;99.90;;;;;;5005375;28;20367;-83
2021/03/14 00:04:55;;;;;;;5.10;1.17;;;6.40;99.90;;;;;;5024378;28;20204;-81
2021/03/14 00:07:22;;;;;;;3.42;1.15;;;6.50;99.90;;;;;;5010115;28;20208;-81
2021/03/14 00:09:49;;;;;;;3.30;1.20;;;6.60;99.90;;;;;;5007447;28;20269;-81
2021/03/14 00:12:15;;;;;;;2.97;0.98;;;6.30;99.90;;;;;;5012511;28;20251;-81
2021/03/14 00:14:41;;;;;;;2.80;1.05;;;6.50;99.90;;;;;;5008576;28;20212;-81
2021/03/14 00:17:08;;;;;;;2.20;0.70;;;6.60;99.90;;;;;;5006246;28;20275;-82
2021/03/14 00:19:35;;;;;;;2.35;0.80;;;6.60;99.90;;;;;;5001193;28;20719;-81
2021/03/14 00:22:01;;;;;;;2.88;0.80;;;6.50;99.90;;;;;;5000488;28;20235;-81
2021/03/14 00:24:29;;;;;;;2.72;0.90;;;6.50;99.90;;;;;;5001871;28;20232;-82
2021/03/14 00:26:55;;;;;;;2.33;0.65;;;6.60;99.90;;;;;;5000209;28;20212;-82
2021/03/14 00:29:21;;;;;;;2.78;0.93;;;6.70;99.90;;;;;;5018130;28;20616;-82
2021/03/14 00:31:48;;;;;;;1.92;0.50;;;6.70;99.90;;;;;;5006571;28;20674;-83
2021/03/14 00:34:14;;;;;;;2.10;0.60;;;6.70;99.90;;;;;;5007177;28;20219;-83
2021/03/14 00:36:40;;;;;;;2.40;0.82;;;6.60;99.90;;;;;;5013645;28;20201;-81
2021/03/14 00:39:07;;;;;;;3.05;1.60;;;6.20;99.90;;;;;;5011486;28;20216;-82
2021/03/14 00:41:34;;;;;;;2.50;0.80;;;6.30;99.90;;;;;;4999955;28;20236;-82
2021/03/14 00:44:00;;;;;;;2.75;0.98;;;6.10;99.90;;;;;;5001978;28;20256;-82
2021/03/14 00:46:27;;;;;;;3.83;1.02;;;6.30;99.90;;;;;;5000602;28;20201;-82
2021/03/14 00:48:53;;;;;;;3.20;0.90;;;6.40;99.90;;;;;;5001664;28;20209;-81
2021/03/14 00:51:20;;;;;;;2.90;0.85;;;6.10;99.90;;;;;;5000452;28;20228;-82
2021/03/14 00:53:46;;;;;;;2.42;0.90;;;6.10;99.90;;;;;;5000438;28;20280;-81
2021/03/14 00:56:12;;;;;;;2.30;0.82;;;6.10;99.90;;;;;;5001981;28;20201;-82
2021/03/14 00:58:41;;;;;;;2.72;0.90;;;5.90;99.90;;;;;;5007070;28;20208;-81
2021/03/14 01:01:07;;;;;;;2.08;0.65;;;6.20;99.90;;;;;;5022947;28;20315;-82
2021/03/14 01:03:33;;;;;;;3.38;0.95;;;6.10;99.90;;;;;;5003414;28;20740;-82
2021/03/14 01:06:00;;;;;;;2.45;0.70;;;6.00;99.90;;;;;;5001042;28;20240;-81
2021/03/14 01:08:26;;;;;;;7.80;0.80;;;6.00;99.90;;;;;;5001109;28;20366;-81
2021/03/14 01:10:53;;;;;;;2.20;0.60;;;6.10;99.90;;;;;;5003524;28;20212;-81
2021/03/14 01:13:19;;;;;;;2.40;0.65;;;6.00;99.90;;;;;;5004690;28;20201;-81
2021/03/14 01:15:46;;;;;;;2.20;0.75;;;6.30;99.90;;;;;;5005265;28;20201;-81
2021/03/14 01:18:13;;;;;;;2.30;0.70;;;6.10;99.90;;;;;;5004930;28;20212;-81
2021/03/14 01:20:40;;;;;;;2.40;0.70;;;6.00;99.90;;;;;;5008468;28;20212;-81
2021/03/14 01:23:06;;;;;;;2.10;0.60;;;6.00;99.90;;;;;;5010308;28;20433;-81
2021/03/14 01:25:32;;;;;;;4.28;0.90;;;6.10;99.90;;;;;;5015323;28;20216;-82
2021/03/14 01:27:59;;;;;;;2.28;0.70;;;6.10;99.90;;;;;;5016442;28;20239;-83
2021/03/14 01:30:25;;;;;;;2.00;0.60;;;6.10;99.90;;;;;;5009351;28;20781;-81
2021/03/14 01:32:53;;;;;;;2.00;0.50;;;6.00;99.90;;;;;;5015330;28;20760;-81
2021/03/14 01:35:20;;;;;;;2.00;0.55;;;5.80;99.90;;;;;;5030674;28;20207;-82
2021/03/14 01:37:47;;;;;;;2.05;0.55;;;6.10;99.90;;;;;;5020154;28;20212;-80
2021/03/14 01:40:16;;;;;;;2.00;0.60;;;6.10;99.90;;;;;;5020112;28;20703;-82
2021/03/14 01:42:42;;;;;;;3.47;1.17;;;6.00;99.90;;;;;;5011400;28;20236;-82
2021/03/14 01:45:09;;;;;;;2.35;0.52;;;6.20;99.90;;;;;;5008726;28;20240;-81
2021/03/14 01:47:37;;;;;;;2.10;0.60;;;5.90;99.90;;;;;;5009674;28;20228;-84
2021/03/14 01:50:06;;;;;;;2.10;0.60;;;6.20;99.90;;;;;;5009670;28;20323;-83
2021/03/14 01:52:33;;;;;;;2.40;0.70;;;6.10;99.90;;;;;;5006507;28;20246;-83
2021/03/14 01:55:00;;;;;;;2.30;0.80;;;6.10;99.90;;;;;;5000734;28;20241;-83
2021/03/14 01:57:27;;;;;;;3.75;0.70;;;6.10;99.90;;;;;;5002999;28;20483;-80
2021/03/14 01:59:53;;;;;;;2.63;1.02;;;5.90;99.90;;;;;;5007392;28;20212;-80
2021/03/14 02:02:20;;;;;;;4.60;0.73;;;5.90;99.90;;;;;;5015801;28;20224;-81
2021/03/14 02:04:46;;;;;;;2.40;0.70;;;5.90;99.90;;;;;;5006776;28;20260;-84
2021/03/14 02:07:14;;;;;;;2.00;0.50;;;5.90;99.90;;;;;;5006065;28;20255;-85
2021/03/14 02:09:40;;;;;;;2.00;0.60;;;6.10;99.90;;;;;;5001226;28;20254;-83
2021/03/14 02:12:11;;;;;;;2.25;0.50;;;5.90;99.90;;;;;;4999429;28;20318;-83
2021/03/14 02:14:39;;;;;;;2.42;0.50;;;5.90;99.90;;;;;;5005562;28;20288;-83
2021/03/14 02:17:09;;;;;;;2.22;0.60;;;6.20;99.90;;;;;;4999775;28;20219;-83
2021/03/14 02:19:39;;;;;;;2.00;0.60;;;6.20;99.90;;;;;;5000045;28;20220;-82
2021/03/14 02:22:06;;;;;;;3.05;0.93;;;6.20;99.90;;;;;;4999824;28;20227;-83
2021/03/14 02:24:43;;;;;;;2.30;0.68;;;6.30;99.90;;;;;;5000185;28;20263;-83
2021/03/14 02:27:11;;;;;;;3.35;0.60;;;6.20;99.90;;;;;;5000931;28;20231;-83
2021/03/14 02:29:41;;;;;;;2.15;0.50;;;6.00;99.90;;;;;;5000433;28;20299;-81
2021/03/14 02:32:11;;;;;;;2.35;0.60;;;6.10;99.90;;;;;;4997810;28;20236;-81
2021/03/14 02:34:39;;;;;;;2.10;0.60;;;5.90;99.90;;;;;;4998645;28;20208;-81
2021/03/14 02:37:07;;;;;;;2.65;0.60;;;6.00;99.90;;;;;;4999434;28;20648;-82
2021/03/14 02:39:35;;;;;;;2.10;0.60;;;6.00;99.90;;;;;;5006403;28;20283;-81
2021/03/14 02:42:02;;;;;;;2.75;0.80;;;6.10;99.90;;;;;;5012563;28;20291;-81
2021/03/14 02:44:34;;;;;;;2.30;0.85;;;5.80;99.90;;;;;;5013514;28;20307;-81
2021/03/14 02:47:02;;;;;;;2.15;0.60;;;6.00;99.90;;;;;;5005932;28;20268;-82
2021/03/14 02:49:28;;;;;;;2.10;0.60;;;5.90;99.90;;;;;;4996788;28;20282;-83
2021/03/14 02:51:55;;;;;;;4.03;0.80;;;6.10;99.90;;;;;;4992392;28;20235;-81
2021/03/14 02:54:23;;;;;;;2.20;0.60;;;6.00;99.90;;;;;;5025797;28;20284;-82
2021/03/14 02:56:50;;;;;;;2.20;0.73;;;6.00;99.90;;;;;;5020484;28;20254;-81
2021/03/14 02:59:19;;;;;;;2.30;0.63;;;5.80;99.90;;;;;;5005121;28;20807;-80
2021/03/14 03:01:47;;;;;;;3.30;0.80;;;6.10;99.90;;;;;;5011448;28;20216;-82
2021/03/14 03:04:16;;;;;;;2.00;0.70;;;6.00;99.90;;;;;;5013616;28;20243;-81
2021/03/14 03:06:43;;;;;;;2.20;0.80;;;5.80;99.90;;;;;;5017122;28;20208;-80
2021/03/14 03:09:11;;;;;;;2.78;1.20;;;5.90;99.90;;;;;;5019162;28;20228;-82
2021/03/14 03:11:38;;;;;;;2.00;0.60;;;5.70;99.90;;;;;;5005906;28;20572;-82
2021/03/14 03:14:06;;;;;;;2.05;0.60;;;5.80;99.90;;;;;;5023545;28;20690;-82
2021/03/14 03:16:33;;;;;;;2.60;0.88;;;5.80;99.90;;;;;;4985452;28;20225;-82
2021/03/14 03:19:01;;;;;;;2.13;0.60;;;5.90;99.90;;;;;;5004367;28;20296;-82
2021/03/14 03:21:28;;;;;;;2.95;0.70;;;5.80;99.90;;;;;;5003405;28;20224;-82
2021/03/14 03:23:54;;;;;;;2.40;0.70;;;5.80;99.90;;;;;;5003802;28;20217;-82
2021/03/14 03:26:21;;;;;;;2.10;0.68;;;5.90;99.90;;;;;;5003516;28;20300;-82
2021/03/14 03:28:50;;;;;;;2.20;0.50;;;5.90;99.90;;;;;;5003479;28;20200;-82
2021/03/14 03:31:17;;;;;;;2.28;0.50;;;5.90;99.90;;;;;;5003087;28;20312;-82
2021/03/14 03:33:43;;;;;;;2.80;0.70;;;5.70;99.90;;;;;;5002529;28;20652;-82
2021/03/14 03:36:10;;;;;;;2.00;0.55;;;5.80;99.90;;;;;;5002306;28;20269;-82
2021/03/14 03:38:37;;;;;;;2.20;0.60;;;5.70;99.90;;;;;;5005607;28;20205;-82
2021/03/14 03:41:03;;;;;;;2.00;0.63;;;5.70;99.90;;;;;;5003769;28;20343;-82
2021/03/14 03:43:33;;;;;;;2.40;0.80;;;5.60;99.90;;;;;;5012585;28;20315;-82
2021/03/14 03:46:02;;;;;;;2.38;0.77;;;5.90;99.90;;;;;;5002079;28;20244;-82
2021/03/14 03:48:34;;;;;;;1.98;0.60;;;5.60;99.90;;;;;;5001779;28;20264;-82
2021/03/14 03:51:03;;;;;;;2.00;0.60;;;5.80;99.90;;;;;;5002890;28;20224;-82
2021/03/14 03:53:32;;;;;;;4.57;0.80;;;5.90;99.90;;;;;;5003275;28;20296;-82
2021/03/14 03:56:00;;;;;;;2.17;0.75;;;5.80;99.90;;;;;;5002830;28;20204;-81
2021/03/14 03:58:27;;;;;;;2.00;0.70;;;5.70;99.90;;;;;;5002509;28;20300;-81
2021/03/14 04:00:55;;;;;;;2.53;0.70;;;5.70;99.90;;;;;;5002472;28;20203;-81
2021/03/14 04:03:23;;;;;;;2.30;0.80;;;5.70;99.90;;;;;;5001543;28;20278;-81
2021/03/14 04:05:54;;;;;;;2.05;0.77;;;5.60;99.90;;;;;;5002484;28;20201;-81
2021/03/14 04:08:21;;;;;;;2.33;0.75;;;5.80;99.90;;;;;;5010663;28;20725;-81
2021/03/14 04:10:49;;;;;;;2.10;0.60;;;5.60;99.90;;;;;;5011897;28;20232;-81
2021/03/14 04:13:17;;;;;;;2.13;0.73;;;5.60;99.90;;;;;;5013421;28;20264;-81
2021/03/14 04:15:43;;;;;;;2.10;0.70;;;5.60;99.90;;;;;;5013660;28;20384;-81
2021/03/14 04:18:11;;;;;;;2.83;0.70;;;5.60;99.90;;;;;;5005505;28;20264;-82
2021/03/14 04:20:40;;;;;;;2.60;1.00;;;5.50;99.90;;;;;;5001644;28;20208;-81
2021/03/14 04:23:10;;;;;;;2.17;0.80;;;5.70;99.90;;;;;;5002563;28;20220;-81
2021/03/14 04:25:37;;;;;;;2.35;0.80;;;5.60;99.90;;;;;;5000471;28;20205;-81
2021/03/14 04:28:06;;;;;;;2.20;0.82;;;5.50;99.90;;;;;;4997058;28;20303;-83
2021/03/14 04:30:33;;;;;;;3.38;0.80;;;5.70;99.90;;;;;;4998631;28;20211;-83
2021/03/14 04:33:00;;;;;;;2.33;0.73;;;5.60;99.90;;;;;;4999804;28;20323;-80
2021/03/14 04:35:27;;;;;;;2.50;1.00;;;5.50;99.90;;;;;;5005488;28;20261;-83
2021/03/14 04:37:55;;;;;;;2.33;0.90;;;5.70;99.90;;;;;;4997642;28;20676;-83
2021/03/14 04:40:23;;;;;;;2.28;0.88;;;5.50;99.90;;;;;;5000038;28;20223;-83
2021/03/14 04:42:51;;;;;;;2.35;0.77;;;5.60;99.90;;;;;;5001613;28;20315;-83
2021/03/14 04:45:20;;;;;;;3.63;1.27;;;5.80;99.90;;;;;;5004586;28;20259;-83
2021/03/14 04:47:47;;;;;;;3.38;1.30;;;5.60;99.90;;;;;;5011139;28;20217;-82
2021/03/14 04:50:15;;;;;;;2.72;0.88;;;5.70;99.90;;;;;;5005706;28;20212;-83
2021/03/14 04:52:44;;;;;;;2.30;0.80;;;5.60;99.90;;;;;;4998714;28;20311;-82
2021/03/14 04:55:13;;;;;;;2.40;1.00;;;5.60;99.90;;;;;;4999986;28;20208;-83
2021/03/14 04:57:42;;;;;;;3.42;1.00;;;5.50;99.90;;;;;;5002220;28;20228;-83
2021/03/14 05:00:10;;;;;;;2.70;0.93;;;5.30;99.90;;;;;;4986908;28;20197;-83
2021/03/14 05:02:41;;;;;;;3.90;1.10;;;5.40;99.90;;;;;;5020017;28;20224;-82
2021/03/14 05:05:09;;;;;;;8.98;1.10;;;5.40;99.90;;;;;;5015490;28;20239;-83
2021/03/14 05:07:37;;;;;;;2.10;0.80;;;5.50;99.90;;;;;;5027349;28;20246;-82
2021/03/14 05:10:07;;;;;;;2.00;0.75;;;5.40;99.90;;;;;;5015130;28;20236;-80
2021/03/14 05:12:34;;;;;;;3.83;0.80;;;5.60;99.90;;;;;;5009898;28;20759;-83
2021/03/14 05:15:02;;;;;;;3.80;1.00;;;5.60;99.90;;;;;;5010027;28;20294;-82
2021/03/14 05:17:29;;;;;;;2.40;1.00;;;5.40;99.90;;;;;;5019636;28;20230;-81
2021/03/14 05:19:57;;;;;;;3.40;0.88;;;5.30;99.90;;;;;;5018346;28;20219;-81
2021/03/14 05:22:24;;;;;;;3.90;1.00;;;5.40;99.90;;;;;;5010261;28;20361;-81
2021/03/14 05:24:50;;;;;;;2.80;0.90;;;5.40;99.90;;;;;;5008922;28;20223;-81
2021/03/14 05:27:18;;;;;;;2.72;0.80;;;5.40;99.90;;;;;;5007712;28;20209;-81
2021/03/14 05:29:45;;;;;;;2.30;0.70;;;5.50;99.90;;;;;;5006704;28;20200;-81
2021/03/14 05:32:12;;;;;;;2.10;0.70;;;5.30;99.90;;;;;;5008575;28;20236;-81
2021/03/14 05:34:38;;;;;;;2.78;0.80;;;5.40;99.90;;;;;;5018177;28;20232;-81
2021/03/14 05:37:06;;;;;;;2.85;0.73;;;5.30;99.90;;;;;;5017243;28;20215;-81
2021/03/14 05:39:32;;;;;;;2.78;0.90;;;5.20;99.90;;;;;;5025002;28;20258;-81
2021/03/14 05:42:00;;;;;;;2.15;0.75;;;5.40;99.90;;;;;;5024412;28;20303;-81
2021/03/14 05:44:27;;;;;;;3.38;0.70;;;5.40;99.90;;;;;;5024546;28;20251;-82
2021/03/14 05:46:53;;;;;;;2.40;0.80;;;5.40;99.90;;;;;;5024092;28;20306;-81
2021/03/14 05:49:20;;;;;;;2.90;0.80;;;5.30;99.90;;;;;;5009257;28;20209;-81
2021/03/14 05:51:51;;;;;;;2.28;0.70;;;5.20;99.90;;;;;;5003584;28;20306;-81
2021/03/14 05:54:19;;;;;;;3.90;1.00;;;5.30;99.90;;;;;;5006219;28;20268;-81
2021/03/14 05:56:48;;;;;;;3.40;0.90;;;5.20;99.90;;;;;;5005567;28;20205;-81
2021/03/14 05:59:16;;;;;;;4.50;0.80;;;5.30;99.90;;;;;;5003652;28;20774;-81
2021/03/14 06:01:48;;;;;;;2.40;0.90;;;5.20;99.90;;;;;;5003024;28;20313;-81
2021/03/14 06:04:16;;;;;;;2.40;0.80;;;5.30;99.90;;;;;;5003599;28;20223;-81
2021/03/14 06:06:43;;;;;;;2.85;0.68;;;5.50;99.90;;;;;;5003889;28;20701;-81
2021/03/14 06:09:11;;;;;;;2.50;0.90;;;5.40;99.90;;;;;;5010633;28;20714;-81
2021/03/14 06:11:39;;;;;;;7.95;1.00;;;5.60;99.90;;;;;;5004855;28;20220;-81
2021/03/14 06:14:05;;;;;;;3.45;0.73;;;5.40;99.90;;;;;;5003612;28;20204;-81
2021/03/14 06:16:32;;;;;;;2.55;0.80;;;5.70;99.90;;;;;;5019655;28;20239;-81
2021/03/14 06:18:58;;;;;;;2.47;0.90;;;5.60;99.90;;;;;;5024990;28;20218;-81
2021/03/14 06:21:26;;;;;;;2.80;0.80;;;5.60;99.90;;;;;;5024577;28;20749;-81
2021/03/14 06:24:00;;;;;;;3.20;1.00;;;5.70;99.90;;;;;;5011538;28;20396;-81
2021/03/14 06:26:39;;;;;;;2.67;0.90;;;5.70;99.90;;;;;;5003392;28;20208;-81
2021/03/14 06:29:25;;;;;;;3.22;1.00;;;5.70;99.90;;;;;;5003272;28;20239;-81
2021/03/14 06:31:57;;;;;;;2.40;0.80;;;5.60;99.90;;;;;;5003236;28;20232;-81
2021/03/14 06:34:29;;;;;;;3.75;1.02;;;5.60;99.90;;;;;;5002246;28;20310;-81
2021/03/14 06:36:57;;;;;;;9.85;1.38;;;5.60;99.90;;;;;;5003283;28;20213;-81
2021/03/14 06:39:26;;;;;;;3.95;1.15;;;5.70;99.90;;;;;;5003031;28;20691;-81
2021/03/14 06:41:54;;;;;;;5.00;1.05;;;5.60;99.90;;;;;;5003139;28;20224;-81
2021/03/14 06:44:25;;;;;;;5.68;1.40;;;5.80;99.90;;;;;;5003297;28;20229;-81
2021/03/14 06:46:52;;;;;;;4.85;1.40;;;5.90;99.90;;;;;;5002557;28;20251;-81
2021/03/14 06:49:20;;;;;;;3.00;1.00;;;5.70;99.90;;;;;;5004087;28;20204;-81
2021/03/14 06:51:48;;;;;;;2.83;1.20;;;6.00;99.90;;;;;;5002949;28;20248;-82
2021/03/14 06:54:20;;;;;;;2.85;1.15;;;5.90;99.90;;;;;;5003041;28;20204;-82
2021/03/14 06:57:01;;;;;;;5.40;1.98;;;6.10;99.90;;;;;;5003144;28;20676;-82
2021/03/14 06:59:29;;;;;;;3.42;1.08;;;5.80;99.90;;;;;;5003710;28;20615;-82
2021/03/14 07:02:00;;;;;;;4.20;1.05;;;6.00;99.90;;;;;;5002834;28;20224;-82
2021/03/14 07:04:41;;;;;;;6.20;1.42;;;5.80;99.90;;;;;;5002627;28;20229;-82
2021/03/14 07:07:13;;;;;;;3.80;1.38;;;6.00;99.90;;;;;;5003459;28;20276;-81
2021/03/14 07:09:39;;;;;;;5.18;1.10;;;6.20;99.90;;;;;;5011429;28;20315;-82
2021/03/14 07:12:19;;;;;;;3.50;1.25;;;6.00;99.90;;;;;;5004451;28;20247;-82
2021/03/14 07:14:46;;;;;;;3.88;1.30;;;6.10;99.90;;;;;;5004166;28;20268;-82
2021/03/14 07:17:30;;;;;;;6.65;1.38;;;6.20;99.90;;;;;;5014837;28;20201;-81
2021/03/14 07:19:57;;;;;;;4.13;1.80;;;6.30;99.90;;;;;;5002623;28;20240;-80
2021/03/14 07:22:24;;;;;;;6.82;1.60;;;6.30;99.90;;;;;;5002692;28;20323;-81
2021/03/14 07:24:51;;;;;;;4.63;1.65;;;6.20;99.90;;;;;;5003226;28;20320;-81
2021/03/14 07:27:22;;;;;;;6.45;2.33;;;6.10;99.90;;;;;;5001006;28;20201;-81
2021/03/14 07:29:52;;;;;;;3.63;1.40;;;6.40;99.90;;;;;;4982647;28;20216;-82
2021/03/14 07:32:18;;;;;;;5.07;1.30;;;6.50;99.90;;;;;;5004757;28;20232;-81
2021/03/14 07:34:45;;;;;;;3.65;1.38;;;6.60;99.90;;;;;;5002466;28;20204;-81
2021/03/14 07:37:11;;;;;;;3.47;1.10;;;6.70;99.90;;;;;;5001611;28;20299;-81
2021/03/14 07:39:38;;;;;;;5.30;1.40;;;7.00;99.90;;;;;;5001271;28;20355;-82
2021/03/14 07:42:06;;;;;;;5.63;1.58;;;7.20;99.90;;;;;;5000862;28;20663;-81
2021/03/14 07:44:34;;;;;;;3.28;1.05;;;7.00;99.90;;;;;;5002377;28;20311;-82
2021/03/14 07:47:01;;;;;;;4.00;1.50;;;7.00;99.90;;;;;;5001534;28;20208;-82
2021/03/14 07:49:29;;;;;;;5.57;1.90;;;7.00;99.90;;;;;;5003199;28;20260;-82
2021/03/14 07:51:57;;;;;;;6.20;1.40;;;7.00;99.90;;;;;;5010406;28;20225;-81
2021/03/14 07:54:27;;;;;;;5.50;1.65;;;6.90;99.90;;;;;;5006219;28;20219;-81
2021/03/14 07:56:56;;;;;;;5.53;1.50;;;7.00;99.90;;;;;;5001955;28;20220;-81
2021/03/14 07:59:30;;;;;;;6.25;2.05;;;6.90;99.90;;;;;;4998976;28;20266;-81
2021/03/14 08:02:30;;;;;;;6.93;1.52;;;6.70;99.90;;;;;;5001042;28;20256;-80
2021/03/14 08:05:01;;;;;;;4.20;1.42;;;6.70;99.90;;;;;;4985313;28;20229;-81
2021/03/14 08:07:47;;;;;;;3.85;1.38;;;6.80;99.90;;;;;;4993236;28;20205;-83
2021/03/14 08:10:33;;;;;;;2.80;0.98;;;6.80;99.90;;;;;;4999298;28;20630;-83
2021/03/14 08:13:00;;;;;;;3.58;1.40;;;6.80;99.90;;;;;;4999464;28;20230;-83
2021/03/14 08:15:29;;;;;;;8.07;1.70;;;7.00;99.90;;;;;;5000253;28;20304;-83
2021/03/14 08:17:58;;;;;;;4.05;1.40;;;6.90;99.90;;;;;;4997726;28;20322;-82
2021/03/14 08:20:44;;;;;;;7.72;1.50;;;7.00;99.90;;;;;;5016643;28;20211;-81
2021/03/14 08:23:13;;;;;;;6.45;1.75;;;6.90;99.90;;;;;;5017675;28;20206;-82
2021/03/14 08:25:41;;;;;;;3.22;1.10;;;7.00;99.90;;;;;;5006347;28;20304;-82
2021/03/14 08:28:30;;;;;;;4.93;1.42;;;6.70;99.90;;;;;;5010090;28;20204;-83
2021/03/14 08:30:58;;;;;;;6.53;2.20;;;6.80;99.90;;;;;;5008397;28;20300;-82
2021/03/14 08:33:39;;;;;;;6.57;1.42;;;6.70;99.90;;;;;;5013556;28;20204;-81
2021/03/14 08:36:07;;;;;;;5.90;1.83;;;7.00;99.90;;;;;;5012951;28;20276;-81
2021/03/14 08:38:37;;;;;;;4.15;1.33;;;6.70;99.90;;;;;;5012392;28;20268;-83
2021/03/14 08:41:26;;;;;;;3.33;1.30;;;6.90;99.90;;;;;;5013572;28;20284;-82
2021/03/14 08:43:56;;;;;;;6.38;1.45;;;7.10;99.90;;;;;;5012021;28;20220;-82
2021/03/14 08:47:06;;;;;;;4.75;1.58;;;7.30;99.90;;;;;;5012197;28;20208;-81
2021/03/14 08:49:35;;;;;;;8.15;2.38;;;7.40;99.90;;;;;;5015189;28;20217;-80
2021/03/14 08:52:03;;;;;;;4.75;1.70;;;7.60;99.90;;;;;;5012166;28;20292;-82
2021/03/14 08:54:32;;;;;;;3.38;1.10;;;7.60;99.90;;;;;;5008706;28;20200;-82
2021/03/14 08:57:00;;;;;;;6.07;1.20;;;7.80;99.90;;;;;;5013203;28;20228;-81
2021/03/14 08:59:27;;;;;;;5.80;1.05;;;7.70;99.90;;;;;;5012691;28;20220;-81
2021/03/14 09:01:55;;;;;;;4.30;1.30;;;7.70;99.90;;;;;;5010410;28;20299;-82
2021/03/14 09:04:23;;;;;;;6.33;1.30;;;7.60;99.90;;;;;;5020098;28;20507;-81
2021/03/14 09:06:51;;;;;;;5.90;1.50;;;7.50;99.90;;;;;;5022387;28;20456;-82
2021/03/14 09:09:20;;;;;;;3.47;1.00;;;7.80;99.90;;;;;;5005322;28;20506;-81
2021/03/14 09:11:48;;;;;;;6.25;1.55;;;7.70;99.90;;;;;;4987783;28;20229;-82
2021/03/14 09:14:23;;;;;;;4.77;1.13;;;7.80;99.90;;;;;;4988131;28;20223;-81
2021/03/14 09:16:51;;;;;;;3.70;1.08;;;7.90;99.90;;;;;;4994270;28;20453;-82
2021/03/14 09:19:32;;;;;;;3.30;1.10;;;7.90;99.90;;;;;;5018431;28;20580;-83
2021/03/14 09:22:01;;;;;;;5.55;1.30;;;7.80;99.90;;;;;;4988560;28;20264;-82
2021/03/14 09:24:39;;;;;;;4.65;1.23;;;7.60;99.90;;;;;;5005556;28;20220;-82
2021/03/14 09:27:08;;;;;;;3.60;1.23;;;7.60;99.90;;;;;;5006189;28;20240;-81
2021/03/14 09:29:44;;;;;;;5.73;1.37;;;7.80;99.90;;;;;;5004155;28;20292;-82
2021/03/14 09:32:29;;;;;;;5.47;1.00;;;7.70;99.90;;;;;;5013083;28;20470;-81
2021/03/14 09:35:19;;;;;;;5.75;1.40;;;7.80;99.90;;;;;;5014933;28;20338;-82
2021/03/14 09:37:49;;;;;;;5.90;1.35;;;7.90;99.90;;;;;;5006984;28;20204;-81
2021/03/14 09:40:29;;;;;;;5.97;1.30;;;7.80;99.90;;;;;;5008275;28;20232;-82
2021/03/14 09:43:08;;;;;;;3.70;1.60;;;7.90;99.90;;;;;;5011252;28;20612;-82
2021/03/14 09:45:35;;;;;;;4.10;1.53;;;8.00;99.90;;;;;;5009561;28;20734;-81
2021/03/14 09:48:07;;;;;;;4.45;1.20;;;7.90;99.90;;;;;;5019025;28;20478;-82
2021/03/14 09:50:37;;;;;;;3.10;1.08;;;8.00;99.90;;;;;;5009691;28;20261;-82
2021/03/14 09:53:06;;;;;;;4.15;0.80;;;8.10;99.90;;;;;;5011136;28;20209;-82
2021/03/14 09:55:34;;;;;;;4.30;1.10;;;8.10;99.90;;;;;;5012778;28;20216;-82
2021/03/14 09:58:01;;;;;;;3.80;1.20;;;8.00;99.90;;;;;;5012124;28;20501;-82
2021/03/14 10:00:30;;;;;;;7.53;1.73;;;8.00;99.90;;;;;;5012274;28;20280;-82
2021/03/14 10:03:00;;;;;;;4.97;1.17;;;8.00;99.90;;;;;;5009786;28;20531;-82
2021/03/14 10:05:27;;;;;;;7.72;2.22;;;8.10;99.90;;;;;;5010042;28;20316;-83
2021/03/14 10:07:54;;;;;;;5.35;1.25;;;8.00;99.90;;;;;;5010231;28;20224;-83
2021/03/14 10:10:22;;;;;;;3.08;1.10;;;8.00;99.90;;;;;;5009547;28;20214;-82
2021/03/14 10:12:49;;;;;;;4.00;1.00;;;8.00;99.90;;;;;;5010887;28;20228;-82
2021/03/14 10:15:17;;;;;;;2.90;1.10;;;8.10;99.90;;;;;;5009623;28;20986;-83
2021/03/14 10:17:45;;;;;;;3.00;1.05;;;8.00;99.90;;;;;;5007055;28;20475;-81
2021/03/14 10:20:13;;;;;;;6.95;1.90;;;8.10;99.90;;;;;;5007722;28;20204;-80
2021/03/14 10:22:40;;;;;;;7.00;1.33;;;8.00;99.90;;;;;;5005953;28;20256;-80
2021/03/14 10:25:22;;;;;;;2.93;0.90;;;7.80;99.90;;;;;;5002156;28;20586;-82
2021/03/14 10:27:50;;;;;;;3.88;1.30;;;8.30;99.90;;;;;;5000165;28;20463;-81
2021/03/14 10:30:19;;;;;;;3.77;1.30;;;8.00;99.90;;;;;;5004308;28;20216;-79
2021/03/14 10:32:46;;;;;;;3.67;1.20;;;8.30;99.90;;;;;;4996501;28;20483;-80
2021/03/14 10:35:12;;;;;;;4.72;1.05;;;8.30;99.90;;;;;;5005729;28;20451;-80
2021/03/14 10:37:39;;;;;;;3.40;1.23;;;8.50;99.90;;;;;;5000364;28;20239;-78
2021/03/14 10:40:08;;;;;;;4.40;1.33;;;8.20;99.90;;;;;;4997294;28;20430;-79
2021/03/14 10:42:36;;;;;;;3.70;1.50;;;8.50;99.90;;;;;;5007971;28;20463;-78
2021/03/14 10:45:08;;;;;;;5.38;1.30;;;8.70;99.90;;;;;;5004753;28;20491;-78
2021/03/14 10:47:34;;;;;;;2.87;0.87;;;8.40;99.90;;;;;;5000169;28;20251;-77
2021/03/14 10:50:16;;;;;;;4.35;1.10;;;8.70;99.90;;;;;;5003350;28;20515;-80
2021/03/14 10:52:43;;;;;;;4.10;1.03;;;8.40;99.90;;;;;;5005126;28;20223;-76
2021/03/14 10:55:27;;;;;;;3.87;1.20;;;8.40;99.80;;;;;;5003315;28;20542;-79
2021/03/14 10:58:14;;;;;;;4.97;1.70;;;8.40;99.90;;;;;;4997985;28;20455;-79
2021/03/14 11:00:44;;;;;;;6.70;1.60;;;8.60;99.90;;;;;;4996482;28;20448;-79
2021/03/14 11:03:38;;;;;;;4.60;1.63;;;8.60;99.90;;;;;;5000637;28;20471;-80
2021/03/14 11:06:16;;;;;;;4.93;1.37;;;8.70;99.90;;;;;;4972824;28;20452;-84
2021/03/14 11:08:50;;;;;;;3.90;1.17;;;9.00;99.90;;;;;;4999021;28;20933;-80
2021/03/14 11:11:16;;;;;;;3.27;0.90;;;9.00;99.90;;;;;;5005898;28;20558;-79
2021/03/14 11:13:43;;;;;;;4.30;1.20;;;9.20;99.40;;;;;;5003416;28;20451;-79
2021/03/14 11:16:10;;;;;;;2.87;0.80;;;9.40;97.90;;;;;;5003694;28;20538;-79
2021/03/14 11:18:36;;;;;;;3.80;1.13;;;9.20;97.80;;;;;;4996586;28;20955;-80
2021/03/14 11:21:03;;;;;;;4.37;1.30;;;9.10;98.30;;;;;;4977478;28;20555;-80
2021/03/14 11:23:30;;;;;;;5.63;1.57;;;9.20;97.00;;;;;;4977802;28;20452;-79
2021/03/14 11:25:56;;;;;;;5.00;1.30;;;8.90;96.10;;;;;;4976931;28;20483;-78
2021/03/14 11:28:23;;;;;;;4.80;1.00;;;9.00;96.50;;;;;;4982893;28;20993;-80
2021/03/14 11:30:50;;;;;;;4.20;1.40;;;9.20;96.30;;;;;;5015840;28;20534;-81
2021/03/14 11:33:17;;;;;;;3.70;1.20;;;9.20;96.30;;;;;;5018103;28;20454;-81
2021/03/14 11:35:44;;;;;;;6.53;1.60;;;9.30;95.50;;;;;;5004902;28;21012;-82
2021/03/14 11:38:12;;;;;;;3.10;0.50;;;9.50;95.10;;;;;;4997286;28;20538;-79
2021/03/14 11:40:38;;;;;;;3.93;1.10;;;9.50;94.20;;;;;;5014382;28;20462;-80
2021/03/14 11:43:05;;;;;;;4.00;1.10;;;9.20;93.80;;;;;;5016538;28;20455;-80
2021/03/14 11:45:31;;;;;;;5.10;1.70;;;9.20;93.90;;;;;;5016151;28;20519;-78
2021/03/14 11:47:57;;;;;;;3.77;1.40;;;9.00;93.70;;;;;;5016330;28;20450;-79
2021/03/14 11:50:25;;;;;;;2.93;0.87;;;9.40;93.80;;;;;;5007001;28;20545;-80
2021/03/14 11:52:51;;;;;;;3.50;1.03;;;9.20;93.80;;;;;;5017235;28;20505;-80
2021/03/14 11:55:18;;;;;;;2.60;1.07;;;9.30;93.70;;;;;;5016902;28;20519;-83
2021/03/14 11:57:44;;;;;;;4.50;1.30;;;9.30;93.80;;;;;;5001862;28;20455;-80
2021/03/14 12:00:11;;;;;;;5.40;1.23;;;9.50;93.90;;;;;;5000824;28;20475;-80
2021/03/14 12:02:38;;;;;;;3.87;1.33;;;9.40;93.40;;;;;;5005971;28;20479;-81
2021/03/14 12:05:05;;;;;;;4.53;1.10;;;9.40;93.30;;;;;;5000725;28;20499;-82
2021/03/14 12:07:32;;;;;;;5.37;1.10;;;8.70;93.70;;;;;;5008480;28;20869;-81
2021/03/14 12:09:59;;;;;;;5.70;1.10;;;9.20;94.10;;;;;;5002498;28;20586;-78
2021/03/14 12:12:25;;;;;;;5.47;1.57;;;9.40;94.30;;;;;;4996303;28;20566;-79
2021/03/14 12:14:51;;;;;;;3.17;0.93;;;9.40;94.80;;;;;;4994546;28;20466;-78
2021/03/14 12:17:18;;;;;;;5.33;1.07;;;9.40;94.90;;;;;;4994608;28;20517;-78
2021/03/14 12:19:44;;;;;;;3.60;1.10;;;9.30;95.10;;;;;;4994712;28;20559;-78
2021/03/14 12:22:10;;;;;;;3.63;1.00;;;9.40;95.60;;;;;;5002285;28;20571;-79
2021/03/14 12:24:38;;;;;;;4.73;1.67;;;9.30;96.80;;;;;;5015284;28;20461;-77
2021/03/14 12:27:05;;;;;;;6.23;1.17;;;8.80;98.50;;;;;;5001833;28;20460;-84
2021/03/14 12:29:31;;;;;;;6.17;1.40;;;9.10;99.90;;;;;;5003997;28;20479;-82
2021/03/14 12:31:58;;;;;;;4.70;1.30;;;8.60;99.90;;;;;;5000795;28;20483;-84
2021/03/14 12:34:24;;;;;;;5.70;1.70;;;8.80;99.90;;;;;;5005758;28;20456;-86
2021/03/14 12:36:51;;;;;;;3.20;1.07;;;8.60;99.90;;;;;;5007679;28;20215;-81
2021/03/14 12:39:17;;;;;;;6.82;1.42;;;8.50;99.90;;;;;;5005467;28;20447;-83
2021/03/14 12:41:45;;;;;;;3.58;1.20;;;8.10;99.90;;;;;;4997708;28;20320;-83
2021/03/14 12:44:11;;;;;;;3.45;1.10;;;8.40;99.90;;;;;;4997836;28;20250;-84
2021/03/14 12:46:37;;;;;;;7.68;1.15;;;8.20;99.90;;;;;;4996682;28;20231;-85
2021/03/14 12:49:04;;;;;;;8.63;1.10;;;8.10;99.90;;;;;;4998639;28;20256;-84
2021/03/14 12:51:30;;;;;;;4.85;1.10;;;7.80;99.90;;;;;;4999852;28;20367;-82
2021/03/14 12:53:57;;;;;;;6.07;1.23;;;7.60;99.90;;;;;;4997869;28;20258;-84
2021/03/14 12:56:24;;;;;;;5.63;1.45;;;7.60;99.90;;;;;;4993499;28;20292;-85
2021/03/14 12:58:52;;;;;;;6.90;1.33;;;7.80;99.90;;;;;;4997432;28;20299;-84
2021/03/14 13:01:18;;;;;;;6.80;1.10;;;7.70;99.90;;;;;;5009912;28;20263;-82
2021/03/14 13:03:44;;;;;;;7.93;1.33;;;7.40;99.90;;;;;;5018953;28;20993;-84
2021/03/14 13:06:11;;;;;;;5.93;1.60;;;7.20;99.90;;;;;;5008807;28;20450;-82